createdAt,value
2017-06-14T00:00:11.652Z,99.90
2017-06-14T00:02:39.725Z,99.90
2017-06-14T00:05:09.108Z,99.90
2017-06-14T00:07:37.981Z,99.90
2017-06-14T00:10:08.661Z,99.90
2017-06-14T00:12:37.933Z,99.90
2017-06-14T00:15:07.715Z,99.90
2017-06-14T00:17:37.093Z,99.90
2017-06-14T00:20:07.889Z,99.90
2017-06-14T00:22:37.373Z,99.90
2017-06-14T00:25:06.112Z,99.90
2017-06-14T00:27:35.641Z,99.90
2017-06-14T00:30:04.101Z,99.90
2017-06-14T00:32:34.589Z,99.90
2017-06-14T00:35:02.834Z,99.90
2017-06-14T00:37:31.308Z,99.90
2017-06-14T00:40:00.733Z,99.90
2017-06-14T00:42:29.519Z,99.90
2017-06-14T00:44:58.357Z,99.90
2017-06-14T00:47:29.007Z,99.90
2017-06-14T00:49:57.853Z,99.90
2017-06-14T00:52:27.661Z,99.90
2017-06-14T00:54:58.285Z,99.90
2017-06-14T00:57:28.236Z,99.90
2017-06-14T00:59:58.627Z,99.90
2017-06-14T01:02:27.801Z,99.90
2017-06-14T01:04:56.944Z,99.90
2017-06-14T01:07:27.020Z,99.90
2017-06-14T01:09:56.957Z,99.90
2017-06-14T01:12:26.692Z,99.90
2017-06-14T01:14:56.644Z,99.90
2017-06-14T01:17:26.568Z,99.90
2017-06-14T01:19:56.329Z,99.90
2017-06-14T01:22:25.941Z,99.90
2017-06-14T01:24:55.053Z,99.90
2017-06-14T01:27:24.084Z,99.90
2017-06-14T01:29:53.024Z,99.90
2017-06-14T01:32:21.829Z,99.90
2017-06-14T01:34:52.308Z,99.90
2017-06-14T01:37:21.993Z,99.90
2017-06-14T01:39:51.064Z,99.90
2017-06-14T01:42:20.173Z,99.90
2017-06-14T01:44:49.312Z,99.90
2017-06-14T01:47:20.080Z,99.90
2017-06-14T01:49:49.659Z,99.90
2017-06-14T01:52:19.508Z,99.90
2017-06-14T01:54:48.692Z,99.90
2017-06-14T01:57:18.424Z,99.90
2017-06-14T01:59:47.944Z,99.90
2017-06-14T02:02:17.641Z,99.90
2017-06-14T02:04:48.401Z,99.90
2017-06-14T02:07:17.610Z,99.90
2017-06-14T02:09:47.571Z,99.90
2017-06-14T02:12:16.636Z,99.90
2017-06-14T02:14:45.128Z,99.90
2017-06-14T02:17:13.720Z,99.90
2017-06-14T02:19:42.168Z,99.90
2017-06-14T02:22:10.664Z,99.90
2017-06-14T02:24:39.408Z,99.90
2017-06-14T02:27:07.696Z,99.90
2017-06-14T02:29:35.904Z,99.90
2017-06-14T02:32:05.293Z,99.90
2017-06-14T02:34:33.968Z,99.90
2017-06-14T02:37:03.646Z,99.90
2017-06-14T02:39:33.849Z,99.90
2017-06-14T02:42:04.205Z,99.90
2017-06-14T02:44:34.540Z,99.90
2017-06-14T02:47:03.736Z,99.90
2017-06-14T02:49:33.386Z,99.90
2017-06-14T02:52:02.708Z,99.90
2017-06-14T02:54:30.824Z,99.90
2017-06-14T02:56:59.292Z,99.90
2017-06-14T02:59:27.556Z,99.90
2017-06-14T03:01:56.009Z,99.90
2017-06-14T03:04:24.284Z,99.90
2017-06-14T03:06:54.049Z,99.90
2017-06-14T03:09:22.829Z,99.90
2017-06-14T03:11:51.086Z,99.90
2017-06-14T03:14:19.386Z,99.90
2017-06-14T03:16:47.852Z,99.90
2017-06-14T03:19:16.836Z,99.90
2017-06-14T03:21:45.185Z,99.90
2017-06-14T03:24:13.433Z,99.90
2017-06-14T03:26:42.037Z,99.90
2017-06-14T03:29:11.009Z,99.90
2017-06-14T03:31:39.813Z,99.90
2017-06-14T03:34:07.908Z,99.90
2017-06-14T03:36:36.837Z,99.90
2017-06-14T03:39:06.160Z,99.90
2017-06-14T03:41:36.800Z,99.90
2017-06-14T03:44:06.052Z,99.90
2017-06-14T03:46:35.341Z,99.90
2017-06-14T03:49:05.196Z,99.90
2017-06-14T03:51:34.291Z,99.90
2017-06-14T03:54:03.576Z,99.90
2017-06-14T03:56:32.652Z,99.90
2017-06-14T03:59:00.927Z,99.90
2017-06-14T04:01:29.843Z,99.90
2017-06-14T04:03:58.920Z,99.90
2017-06-14T04:06:27.601Z,99.90
2017-06-14T04:08:56.179Z,99.90
2017-06-14T04:11:24.701Z,99.90
2017-06-14T04:13:53.359Z,99.90
2017-06-14T04:16:22.004Z,99.90
2017-06-14T04:18:51.706Z,99.90
2017-06-14T04:21:22.124Z,99.90
2017-06-14T04:23:50.361Z,99.90
2017-06-14T04:26:18.534Z,99.90
2017-06-14T04:28:47.544Z,99.90
2017-06-14T04:31:16.772Z,99.90
2017-06-14T04:33:47.496Z,99.90
2017-06-14T04:36:22.640Z,99.90
2017-06-14T04:38:52.563Z,98.90
2017-06-14T04:41:21.921Z,98.60
2017-06-14T04:43:49.981Z,98.60
2017-06-14T04:46:18.649Z,97.90
2017-06-14T04:48:47.229Z,96.70
2017-06-14T04:51:15.669Z,95.90
2017-06-14T04:53:44.344Z,92.10
2017-06-14T04:56:13.011Z,84.80
2017-06-14T04:58:41.173Z,76.70
2017-06-14T05:01:09.889Z,69.50
2017-06-14T05:03:37.956Z,63.50
2017-06-14T05:06:06.159Z,60.10
2017-06-14T05:08:34.712Z,59.70
2017-06-14T05:11:03.300Z,61.50
2017-06-14T05:13:31.761Z,65.00
2017-06-14T05:15:59.992Z,67.50
2017-06-14T05:18:28.093Z,70.00
2017-06-14T05:20:56.302Z,73.40
2017-06-14T05:23:24.565Z,73.60
2017-06-14T05:25:52.736Z,69.10
2017-06-14T05:28:21.329Z,64.70
2017-06-14T05:30:49.561Z,60.20
2017-06-14T05:33:17.658Z,57.90
2017-06-14T05:35:45.925Z,57.30
2017-06-14T05:38:14.289Z,54.80
2017-06-14T05:40:42.388Z,53.90
2017-06-14T05:43:11.729Z,52.50
2017-06-14T05:45:39.940Z,52.50
2017-06-14T05:48:08.024Z,55.70
2017-06-14T05:50:36.171Z,58.60
2017-06-14T05:53:04.422Z,59.20
2017-06-14T05:55:32.504Z,60.80
2017-06-14T05:58:00.727Z,61.80
2017-06-14T06:00:28.996Z,61.30
2017-06-14T06:02:57.180Z,60.90
2017-06-14T06:05:26.641Z,63.20
2017-06-14T06:07:55.432Z,63.20
2017-06-14T06:10:23.545Z,60.70
2017-06-14T06:12:51.604Z,57.00
2017-06-14T06:15:19.849Z,55.10
2017-06-14T06:17:47.936Z,54.30
2017-06-14T06:20:16.041Z,51.60
2017-06-14T06:22:44.629Z,50.20
2017-06-14T06:25:12.704Z,48.60
2017-06-14T06:27:40.809Z,48.80
2017-06-14T06:30:09.549Z,47.60
2017-06-14T06:32:38.309Z,46.10
2017-06-14T06:35:07.089Z,45.30
2017-06-14T06:37:35.898Z,46.10
2017-06-14T06:40:04.236Z,48.00
2017-06-14T06:42:32.853Z,50.30
2017-06-14T06:45:01.549Z,52.00
2017-06-14T06:47:30.061Z,52.50
2017-06-14T06:49:58.149Z,53.30
2017-06-14T06:52:26.373Z,53.60
2017-06-14T06:54:54.448Z,55.00
2017-06-14T06:57:22.509Z,55.10
2017-06-14T06:59:50.756Z,55.50
2017-06-14T07:02:18.973Z,57.10
2017-06-14T07:04:47.063Z,56.50
2017-06-14T07:07:15.261Z,55.90
2017-06-14T07:09:43.465Z,55.70
2017-06-14T07:12:12.146Z,55.80
2017-06-14T07:14:41.141Z,55.10
2017-06-14T07:17:09.306Z,53.80
2017-06-14T07:19:37.458Z,51.40
2017-06-14T07:22:06.249Z,49.30
2017-06-14T07:24:34.852Z,47.70
2017-06-14T07:27:04.211Z,46.50
2017-06-14T07:29:32.469Z,46.40
2017-06-14T07:32:00.580Z,45.00
2017-06-14T07:34:28.705Z,43.20
2017-06-14T07:36:56.969Z,43.80
2017-06-14T07:39:25.193Z,42.90
2017-06-14T07:41:53.280Z,43.70
2017-06-14T07:44:21.973Z,44.00
2017-06-14T07:46:50.075Z,46.80
2017-06-14T07:49:18.152Z,48.30
2017-06-14T07:51:47.801Z,49.80
2017-06-14T07:54:16.584Z,49.70
2017-06-14T07:56:44.970Z,48.60
2017-06-14T07:59:13.185Z,49.00
2017-06-14T08:01:41.260Z,49.00
2017-06-14T08:04:09.368Z,49.90
2017-06-14T08:06:37.576Z,49.70
2017-06-14T08:09:05.672Z,50.20
2017-06-14T08:11:33.756Z,49.40
2017-06-14T08:14:01.965Z,48.60
2017-06-14T08:16:30.044Z,47.00
2017-06-14T08:18:58.108Z,45.40
2017-06-14T08:21:26.325Z,44.70
2017-06-14T08:23:54.421Z,52.80
2017-06-14T08:26:22.489Z,65.90
2017-06-14T08:28:50.741Z,68.20
2017-06-14T08:31:18.837Z,72.20
2017-06-14T08:33:48.292Z,73.50
2017-06-14T08:36:16.905Z,75.20
2017-06-14T08:38:45.593Z,77.40
2017-06-14T08:41:14.200Z,78.80
2017-06-14T08:43:42.860Z,80.20
2017-06-14T08:46:11.469Z,81.10
2017-06-14T08:48:39.904Z,82.20
2017-06-14T08:51:08.645Z,83.50
2017-06-14T08:53:38.460Z,83.80
2017-06-14T08:56:06.565Z,84.50
2017-06-14T08:58:34.781Z,86.10
2017-06-14T09:01:03.365Z,88.20
2017-06-14T09:03:31.945Z,88.50
2017-06-14T09:06:00.905Z,87.70
2017-06-14T09:08:28.969Z,89.00
2017-06-14T09:10:58.188Z,90.30
2017-06-14T09:13:26.805Z,90.20
2017-06-14T09:15:55.275Z,90.80
2017-06-14T09:18:23.840Z,90.90
2017-06-14T09:20:52.553Z,91.10
2017-06-14T09:23:21.164Z,91.20
2017-06-14T09:25:49.889Z,91.30
2017-06-14T09:28:19.440Z,90.80
2017-06-14T09:30:48.124Z,90.80
2017-06-14T09:33:16.873Z,91.00
2017-06-14T09:35:46.544Z,91.50
2017-06-14T09:38:15.169Z,91.50
2017-06-14T09:40:43.566Z,92.00
2017-06-14T09:43:12.485Z,92.00
2017-06-14T09:45:41.093Z,91.70
2017-06-14T09:48:09.817Z,91.50
2017-06-14T09:50:39.484Z,92.10
2017-06-14T09:53:08.153Z,92.10
2017-06-14T09:55:36.228Z,91.30
2017-06-14T09:58:04.464Z,91.00
2017-06-14T10:00:32.961Z,91.00
2017-06-14T10:03:01.037Z,90.60
2017-06-14T10:05:29.248Z,90.60
2017-06-14T10:07:57.305Z,90.80
2017-06-14T10:10:25.356Z,90.60
2017-06-14T10:12:53.576Z,90.90
2017-06-14T10:15:21.681Z,90.60
2017-06-14T10:17:49.743Z,90.00
2017-06-14T10:20:19.229Z,90.70
2017-06-14T10:22:47.889Z,90.20
2017-06-14T10:25:16.673Z,89.90
2017-06-14T10:27:46.597Z,90.20
2017-06-14T10:30:15.208Z,90.00
2017-06-14T10:32:43.269Z,90.40
2017-06-14T10:35:11.545Z,90.00
2017-06-14T10:37:39.669Z,90.10
2017-06-14T10:40:07.741Z,90.40
2017-06-14T10:42:37.317Z,89.70
2017-06-14T10:45:05.529Z,89.70
2017-06-14T10:47:33.593Z,90.10
2017-06-14T10:50:01.810Z,90.30
2017-06-14T10:52:29.889Z,90.20
2017-06-14T10:54:57.957Z,91.10
2017-06-14T10:57:26.257Z,91.10
2017-06-14T10:59:54.424Z,90.90
2017-06-14T11:02:22.578Z,91.60
2017-06-14T11:04:51.409Z,91.30
2017-06-14T11:07:20.170Z,91.40
2017-06-14T11:09:48.953Z,91.60
2017-06-14T11:12:17.951Z,92.00
2017-06-14T11:14:46.731Z,92.80
2017-06-14T11:17:15.396Z,93.00
2017-06-14T11:19:43.673Z,93.30
2017-06-14T11:22:11.816Z,93.40
2017-06-14T11:24:39.952Z,93.20
2017-06-14T11:27:08.714Z,92.60
2017-06-14T11:29:36.846Z,92.80
2017-06-14T11:32:05.495Z,92.30
2017-06-14T11:34:34.272Z,92.20
2017-06-14T11:37:02.397Z,91.70
2017-06-14T11:39:32.100Z,90.90
2017-06-14T11:42:00.792Z,90.50
2017-06-14T11:44:29.513Z,89.50
2017-06-14T11:46:58.932Z,86.70
2017-06-14T11:49:27.953Z,86.60
2017-06-14T11:51:56.736Z,86.40
2017-06-14T11:54:25.593Z,85.80
2017-06-14T11:56:55.137Z,86.00
2017-06-14T11:59:23.757Z,86.00
2017-06-14T12:01:52.476Z,87.60
2017-06-14T12:04:21.213Z,87.00
2017-06-14T12:06:49.971Z,87.60
2017-06-14T12:09:18.810Z,86.20
2017-06-14T12:11:47.687Z,86.40
2017-06-14T12:14:15.914Z,85.60
2017-06-14T12:16:44.550Z,84.20
2017-06-14T12:19:13.373Z,82.60
2017-06-14T12:21:42.783Z,80.00
2017-06-14T12:24:11.628Z,80.10
2017-06-14T12:26:39.918Z,79.50
2017-06-14T12:29:08.064Z,78.60
2017-06-14T12:31:36.239Z,79.20
2017-06-14T12:34:04.524Z,78.70
2017-06-14T12:36:32.689Z,77.50
2017-06-14T12:39:00.836Z,75.80
2017-06-14T12:41:29.125Z,74.40
2017-06-14T12:43:57.425Z,70.00
2017-06-14T12:46:25.599Z,66.90
2017-06-14T12:48:54.034Z,63.90
2017-06-14T12:51:23.635Z,64.20
2017-06-14T12:53:51.829Z,65.00
2017-06-14T12:56:20.658Z,64.20
2017-06-14T12:58:49.092Z,63.60
2017-06-14T13:01:17.257Z,61.20
2017-06-14T13:03:45.552Z,61.40
2017-06-14T13:06:14.689Z,63.20
2017-06-14T13:08:42.901Z,63.90
2017-06-14T13:11:11.201Z,65.40
2017-06-14T13:13:39.365Z,64.80
2017-06-14T13:16:07.517Z,65.30
2017-06-14T13:18:35.865Z,65.70
2017-06-14T13:21:04.057Z,67.90
2017-06-14T13:23:32.232Z,69.10
2017-06-14T13:26:00.540Z,70.30
2017-06-14T13:28:28.747Z,72.70
2017-06-14T13:30:56.894Z,74.60
2017-06-14T13:33:25.185Z,75.90
2017-06-14T13:35:53.333Z,76.80
2017-06-14T13:38:22.419Z,78.10
2017-06-14T13:40:51.131Z,79.00
2017-06-14T13:43:19.776Z,79.20
2017-06-14T13:45:48.478Z,79.60
2017-06-14T13:48:17.292Z,80.80
2017-06-14T13:50:46.285Z,80.60
2017-06-14T13:53:14.789Z,80.50
2017-06-14T13:55:43.154Z,81.10
2017-06-14T13:58:12.547Z,80.50
2017-06-14T14:00:42.940Z,80.50
2017-06-14T14:03:13.754Z,80.70
2017-06-14T14:05:42.888Z,81.80
2017-06-14T14:08:12.069Z,82.00
2017-06-14T14:10:40.573Z,82.10
2017-06-14T14:13:10.732Z,83.00
2017-06-14T14:15:39.005Z,83.80
2017-06-14T14:18:08.714Z,84.10
2017-06-14T14:20:37.804Z,85.60
2017-06-14T14:23:05.965Z,86.20
2017-06-14T14:25:34.265Z,87.10
2017-06-14T14:28:04.043Z,87.40
2017-06-14T14:30:32.223Z,87.90
2017-06-14T14:33:01.055Z,89.00
2017-06-14T14:35:29.485Z,90.00
2017-06-14T14:37:57.653Z,90.20
2017-06-14T14:40:26.129Z,90.40
2017-06-14T14:42:55.079Z,90.90
2017-06-14T14:45:23.213Z,91.20
2017-06-14T14:47:52.169Z,91.40
2017-06-14T14:50:20.903Z,91.70
2017-06-14T14:52:49.468Z,91.60
2017-06-14T14:55:18.365Z,91.90
2017-06-14T14:57:46.516Z,92.90
2017-06-14T15:00:15.074Z,92.60
2017-06-14T15:02:44.638Z,93.10
2017-06-14T15:05:12.800Z,93.10
2017-06-14T15:07:40.969Z,93.20
2017-06-14T15:10:09.307Z,93.30
2017-06-14T15:12:37.483Z,93.70
2017-06-14T15:15:05.630Z,94.30
2017-06-14T15:17:33.915Z,94.80
2017-06-14T15:20:03.213Z,94.90
2017-06-14T15:22:31.385Z,94.80
2017-06-14T15:25:00.270Z,95.00
2017-06-14T15:27:28.979Z,95.30
2017-06-14T15:29:57.158Z,95.60
2017-06-14T15:32:25.849Z,95.70
2017-06-14T15:34:54.025Z,95.50
2017-06-14T15:37:22.201Z,95.50
2017-06-14T15:39:50.519Z,95.20
2017-06-14T15:42:18.693Z,95.00
2017-06-14T15:44:46.869Z,94.80
2017-06-14T15:47:15.643Z,94.20
2017-06-14T15:49:45.194Z,93.50
2017-06-14T15:52:13.355Z,93.50
2017-06-14T15:54:41.774Z,93.20
2017-06-14T15:57:09.909Z,93.00
2017-06-14T15:59:38.138Z,92.80
2017-06-14T16:02:06.797Z,92.70
2017-06-14T16:04:34.989Z,92.50
2017-06-14T16:07:03.132Z,92.30
2017-06-14T16:09:31.820Z,92.20
2017-06-14T16:12:00.382Z,92.10
2017-06-14T16:14:29.264Z,91.90
2017-06-14T16:16:58.293Z,91.00
2017-06-14T16:19:27.146Z,90.00
2017-06-14T16:21:55.726Z,87.20
2017-06-14T16:24:25.273Z,79.00
2017-06-14T16:26:54.128Z,78.90
2017-06-14T16:29:22.626Z,76.70
2017-06-14T16:31:51.441Z,76.00
2017-06-14T16:34:20.124Z,75.70
2017-06-14T16:36:48.916Z,75.70
2017-06-14T16:39:17.912Z,75.90
2017-06-14T16:41:46.802Z,76.40
2017-06-14T16:44:15.334Z,76.80
2017-06-14T16:46:45.684Z,77.40
2017-06-14T16:49:14.505Z,77.40
2017-06-14T16:51:43.118Z,77.70
2017-06-14T16:54:12.082Z,77.40
2017-06-14T16:56:41.078Z,77.30
2017-06-14T16:59:09.928Z,77.20
2017-06-14T17:01:39.380Z,76.00
2017-06-14T17:04:07.960Z,76.00
2017-06-14T17:06:36.739Z,75.20
2017-06-14T17:09:05.621Z,74.40
2017-06-14T17:11:34.220Z,74.30
2017-06-14T17:14:02.818Z,73.50
2017-06-14T17:16:31.706Z,73.30
2017-06-14T17:19:00.552Z,72.70
2017-06-14T17:21:29.925Z,72.20
2017-06-14T17:23:58.889Z,72.10
2017-06-14T17:26:27.744Z,71.90
2017-06-14T17:28:56.329Z,71.90
2017-06-14T17:31:25.150Z,72.00
2017-06-14T17:33:53.846Z,71.70
2017-06-14T17:36:22.562Z,71.80
2017-06-14T17:38:50.854Z,71.50
2017-06-14T17:41:19.033Z,72.90
2017-06-14T17:43:47.217Z,72.10
2017-06-14T17:46:15.528Z,72.10
2017-06-14T17:48:43.750Z,72.10
2017-06-14T17:51:12.229Z,71.80
2017-06-14T17:53:41.093Z,71.10
2017-06-14T17:56:09.294Z,71.30
2017-06-14T17:58:38.057Z,71.30
2017-06-14T18:01:06.975Z,71.10
2017-06-14T18:03:35.804Z,71.60
2017-06-14T18:06:04.368Z,71.10
2017-06-14T18:08:34.079Z,70.80
2017-06-14T18:11:02.294Z,70.50
2017-06-14T18:13:31.038Z,70.40
2017-06-14T18:15:59.378Z,70.30
2017-06-14T18:18:28.232Z,70.00
2017-06-14T18:20:56.429Z,70.40
2017-06-14T18:23:24.733Z,69.60
2017-06-14T18:25:52.889Z,69.60
2017-06-14T18:28:21.080Z,69.00
2017-06-14T18:30:49.390Z,69.80
2017-06-14T18:33:17.574Z,68.60
2017-06-14T18:35:45.729Z,69.90
2017-06-14T18:38:14.047Z,69.60
2017-06-14T18:40:42.225Z,68.40
2017-06-14T18:43:10.396Z,68.30
2017-06-14T18:45:38.691Z,67.40
2017-06-14T18:48:06.905Z,67.60
2017-06-14T18:50:35.084Z,66.90
2017-06-14T18:53:03.664Z,66.60
2017-06-14T18:55:32.077Z,67.40
2017-06-14T18:58:01.360Z,66.80
2017-06-14T19:00:30.354Z,66.80
2017-06-14T19:02:58.829Z,66.90
2017-06-14T19:05:27.129Z,66.90
2017-06-14T19:07:56.894Z,66.50
2017-06-14T19:10:25.443Z,66.30
2017-06-14T19:12:54.069Z,66.00
2017-06-14T19:15:22.865Z,66.50
2017-06-14T19:17:51.569Z,66.20
2017-06-14T19:20:19.997Z,66.70
2017-06-14T19:22:51.662Z,66.10
2017-06-14T19:25:20.432Z,66.10
2017-06-14T19:27:49.428Z,66.00
2017-06-14T19:30:18.223Z,65.90
2017-06-14T19:32:50.281Z,65.90
2017-06-14T19:35:20.741Z,65.80
2017-06-14T19:37:49.337Z,65.70
2017-06-14T19:40:17.946Z,65.80
2017-06-14T19:42:46.877Z,66.50
2017-06-14T19:45:15.694Z,66.60
2017-06-14T19:47:44.112Z,66.10
2017-06-14T19:50:12.977Z,65.90
2017-06-14T19:52:41.761Z,65.80
2017-06-14T19:55:09.941Z,65.20
2017-06-14T19:57:38.833Z,65.80
2017-06-14T20:00:07.209Z,65.80
2017-06-14T20:02:36.168Z,65.80
2017-06-14T20:05:05.266Z,66.20
2017-06-14T20:07:34.084Z,66.40
2017-06-14T20:10:02.301Z,66.50
2017-06-14T20:12:31.168Z,66.10
2017-06-14T20:14:59.977Z,66.60
2017-06-14T20:17:28.495Z,66.90
2017-06-14T20:19:58.170Z,67.10
2017-06-14T20:22:26.998Z,67.10
2017-06-14T20:25:02.116Z,67.10
2017-06-14T20:27:31.683Z,67.20
2017-06-14T20:30:00.474Z,67.30
2017-06-14T20:32:28.957Z,66.50
2017-06-14T20:34:57.096Z,67.70
2017-06-14T20:37:25.242Z,67.70
2017-06-14T20:39:54.117Z,68.00
2017-06-14T20:42:22.722Z,68.20
2017-06-14T20:44:51.977Z,69.10
2017-06-14T20:47:20.261Z,69.00
2017-06-14T20:49:48.401Z,69.30
2017-06-14T20:52:16.536Z,69.30
2017-06-14T20:54:44.836Z,69.50
2017-06-14T20:57:12.993Z,69.60
2017-06-14T20:59:41.139Z,70.40
2017-06-14T21:02:09.417Z,70.40
2017-06-14T21:04:38.300Z,70.40
2017-06-14T21:07:06.445Z,70.50
2017-06-14T21:09:35.173Z,70.60
2017-06-14T21:12:03.328Z,70.60
2017-06-14T21:14:31.453Z,70.90
2017-06-14T21:16:59.738Z,71.40
2017-06-14T21:19:27.877Z,71.50
2017-06-14T21:21:56.016Z,71.70
2017-06-14T21:24:24.296Z,72.00
2017-06-14T21:26:52.443Z,72.00
2017-06-14T21:29:20.600Z,71.80
2017-06-14T21:31:49.385Z,72.50
2017-06-14T21:34:18.035Z,72.30
2017-06-14T21:36:46.425Z,72.30
2017-06-14T21:39:15.221Z,72.70
2017-06-14T21:41:43.384Z,72.80
2017-06-14T21:44:12.072Z,72.60
2017-06-14T21:46:40.969Z,72.90
2017-06-14T21:49:09.683Z,73.20
2017-06-14T21:51:38.185Z,74.10
2017-06-14T21:54:07.948Z,73.70
2017-06-14T21:56:36.142Z,73.60
2017-06-14T21:59:05.633Z,73.80
2017-06-14T22:01:34.324Z,74.10
2017-06-14T22:04:02.901Z,74.20
2017-06-14T22:06:31.650Z,74.50
2017-06-14T22:09:00.488Z,75.20
2017-06-14T22:11:29.341Z,75.40
2017-06-14T22:13:57.904Z,75.60
2017-06-14T22:16:27.679Z,76.60
2017-06-14T22:18:56.425Z,76.20
2017-06-14T22:21:25.865Z,76.90
2017-06-14T22:23:54.660Z,77.60
2017-06-14T22:26:23.188Z,77.30
2017-06-14T22:28:52.708Z,78.20
2017-06-14T22:31:22.176Z,78.80
2017-06-14T22:33:50.831Z,78.70
2017-06-14T22:36:19.357Z,79.20
2017-06-14T22:38:48.212Z,79.60
2017-06-14T22:41:17.006Z,80.00
2017-06-14T22:43:45.682Z,80.50
2017-06-14T22:46:14.364Z,81.80
2017-06-14T22:48:42.889Z,81.60
2017-06-14T22:51:11.473Z,81.80
2017-06-14T22:53:40.400Z,82.50
2017-06-14T22:56:09.745Z,83.80
2017-06-14T22:58:37.907Z,83.80
2017-06-14T23:01:06.210Z,84.50
2017-06-14T23:03:34.381Z,85.30
2017-06-14T23:06:03.057Z,86.00
2017-06-14T23:08:31.500Z,86.50
2017-06-14T23:10:59.646Z,86.80
2017-06-14T23:13:27.801Z,88.00
2017-06-14T23:15:56.096Z,88.20
2017-06-14T23:18:24.245Z,89.00
2017-06-14T23:20:52.905Z,89.60
2017-06-14T23:23:21.818Z,90.10
2017-06-14T23:25:50.434Z,90.30
2017-06-14T23:28:19.083Z,90.40
2017-06-14T23:30:47.733Z,90.50
2017-06-14T23:33:17.456Z,91.00
2017-06-14T23:35:45.913Z,91.00
2017-06-14T23:38:14.225Z,91.20
2017-06-14T23:40:43.181Z,91.80
2017-06-14T23:43:11.333Z,91.90
2017-06-14T23:45:39.600Z,91.90
2017-06-14T23:48:07.735Z,92.00
2017-06-14T23:50:35.896Z,91.80
2017-06-14T23:53:04.169Z,92.30
2017-06-14T23:55:32.345Z,92.10
2017-06-14T23:58:00.512Z,92.70
